createdAt,value
2023-03-07T00:01:23.462Z,17.10
2023-03-07T00:03:51.502Z,17.10
2023-03-07T00:06:19.777Z,17.20
2023-03-07T00:08:51.269Z,16.90
2023-03-07T00:11:20.901Z,17.10
2023-03-07T00:13:49.687Z,17.00
2023-03-07T00:16:20.799Z,17.30
2023-03-07T00:18:49.198Z,16.90
2023-03-07T00:21:21.864Z,17.20
2023-03-07T00:23:52.944Z,17.00
2023-03-07T00:26:25.229Z,17.30
2023-03-07T00:28:55.807Z,17.20
2023-03-07T00:31:24.695Z,16.80
2023-03-07T00:33:53.130Z,17.20
2023-03-07T00:36:23.454Z,17.00
2023-03-07T00:38:51.795Z,17.20
2023-03-07T00:41:23.975Z,17.20
2023-03-07T00:43:52.107Z,17.00
2023-03-07T00:46:22.799Z,16.90
2023-03-07T00:48:50.819Z,17.30
2023-03-07T00:51:20.590Z,17.20
2023-03-07T00:53:49.207Z,17.10
2023-03-07T00:56:19.549Z,17.20
2023-03-07T00:58:49.423Z,17.10
2023-03-07T01:01:20.773Z,17.10
2023-03-07T01:03:49.919Z,17.10
2023-03-07T01:06:20.571Z,17.10
2023-03-07T01:08:48.587Z,17.10
2023-03-07T01:11:16.758Z,17.00
2023-03-07T01:13:44.740Z,16.90
2023-03-07T01:16:17.828Z,17.00
2023-03-07T01:18:50.411Z,17.00
2023-03-07T01:21:21.639Z,17.20
2023-03-07T01:23:49.605Z,17.10
2023-03-07T01:26:21.883Z,17.20
2023-03-07T01:28:52.202Z,17.10
2023-03-07T01:31:21.804Z,17.20
2023-03-07T01:33:51.123Z,17.20
2023-03-07T01:36:21.469Z,16.90
2023-03-07T01:38:50.663Z,17.20
2023-03-07T01:41:18.744Z,17.00
2023-03-07T01:43:46.916Z,16.90
2023-03-07T01:46:47.335Z,17.20
2023-03-07T01:49:24.572Z,17.10
2023-03-07T01:52:00.280Z,17.20
2023-03-07T01:54:31.260Z,17.10
2023-03-07T01:56:59.875Z,17.10
2023-03-07T01:59:33.393Z,17.20
2023-03-07T02:02:07.716Z,17.00
2023-03-07T02:04:41.427Z,17.10
2023-03-07T02:07:10.810Z,17.10
2023-03-07T03:33:15.990Z,17.10
2023-03-07T03:35:44.014Z,17.10
2023-03-07T03:38:11.983Z,17.10
2023-03-07T03:40:41.249Z,17.20
2023-03-07T03:43:09.203Z,16.90
2023-03-07T03:45:37.176Z,17.10
2023-03-07T03:48:05.732Z,17.10
2023-03-07T03:50:35.301Z,16.70
2023-03-07T03:53:03.770Z,17.00
2023-03-07T03:55:32.010Z,16.90
2023-03-07T03:58:00.335Z,17.10
2023-03-07T04:00:28.399Z,16.90
2023-03-07T04:02:56.453Z,17.10
2023-03-07T04:05:24.874Z,16.90
2023-03-07T04:07:54.137Z,16.90
2023-03-07T04:10:22.071Z,16.60
2023-03-07T04:12:50.053Z,17.10
2023-03-07T04:15:18.314Z,16.70
2023-03-07T04:17:46.380Z,17.00
2023-03-07T04:20:17.544Z,17.10
2023-03-07T04:22:45.737Z,17.20
2023-03-07T04:25:15.261Z,17.10
2023-03-07T04:27:43.257Z,17.00
2023-03-07T04:30:12.690Z,17.10
2023-03-07T04:32:42.372Z,17.10
2023-03-07T04:35:10.649Z,17.00
2023-03-07T04:37:38.643Z,17.10
2023-03-07T04:40:08.070Z,17.10
2023-03-07T04:42:37.750Z,16.90
2023-03-07T04:45:06.939Z,17.20
2023-03-07T04:47:34.888Z,16.80
2023-03-07T04:50:03.300Z,17.10
2023-03-07T04:52:31.232Z,16.90
2023-03-07T04:54:59.180Z,17.10
2023-03-07T04:57:27.346Z,17.00
2023-03-07T04:59:56.711Z,17.10
2023-03-07T05:02:24.863Z,17.20
2023-03-07T05:04:52.884Z,16.90
2023-03-07T05:07:20.859Z,17.00
2023-03-07T05:09:48.790Z,16.90
2023-03-07T05:12:16.809Z,16.80
2023-03-07T05:14:44.841Z,17.10
2023-03-07T05:17:14.180Z,17.10
2023-03-07T05:19:42.514Z,17.20
2023-03-07T05:22:10.764Z,16.90
2023-03-07T05:24:38.772Z,17.00
2023-03-07T05:27:07.345Z,17.00
2023-03-07T05:29:35.434Z,17.20
2023-03-07T05:32:03.854Z,17.10
2023-03-07T05:34:33.244Z,17.20
2023-03-07T05:37:01.280Z,16.80
2023-03-07T05:39:29.256Z,16.90
2023-03-07T05:41:57.224Z,16.90
2023-03-07T05:44:25.195Z,16.90
2023-03-07T05:46:53.180Z,17.00
2023-03-07T05:49:21.393Z,16.80
2023-03-07T05:51:50.718Z,17.20
2023-03-07T05:54:18.984Z,17.10
2023-03-07T05:56:46.950Z,16.90
2023-03-07T05:59:15.629Z,17.00
2023-03-07T06:01:43.886Z,17.00
2023-03-07T06:04:11.949Z,17.10
2023-03-07T06:06:39.953Z,16.80
2023-03-07T06:09:09.308Z,17.10
2023-03-07T06:11:37.320Z,16.90
2023-03-07T06:14:05.380Z,17.20
2023-03-07T06:16:33.398Z,17.10
2023-03-07T06:19:01.449Z,17.20
2023-03-07T06:21:30.373Z,17.10
2023-03-07T06:23:58.390Z,16.90
2023-03-07T06:26:27.753Z,17.00
2023-03-07T06:28:55.792Z,17.10
2023-03-07T06:31:24.083Z,16.90
2023-03-07T06:33:52.846Z,16.80
2023-03-07T06:36:22.249Z,17.10
2023-03-07T06:38:50.319Z,17.00
2023-03-07T06:41:18.593Z,17.10
2023-03-07T06:43:51.101Z,17.10
2023-03-07T06:46:20.412Z,16.90
2023-03-07T06:48:48.421Z,17.10
2023-03-07T06:51:16.407Z,17.00
2023-03-07T06:53:44.569Z,17.10
2023-03-07T06:56:12.606Z,17.00
2023-03-07T06:58:40.665Z,17.10
2023-03-07T07:01:17.919Z,17.10
2023-03-07T07:03:46.135Z,17.00
2023-03-07T07:06:14.186Z,16.90
2023-03-07T07:08:42.493Z,17.10
2023-03-07T07:11:10.636Z,17.10
2023-03-07T07:13:38.640Z,17.00
2023-03-07T07:16:09.261Z,16.80
2023-03-07T07:18:37.302Z,17.10
2023-03-07T07:21:05.813Z,17.30
2023-03-07T07:23:33.857Z,16.90
2023-03-07T07:26:02.067Z,17.00
2023-03-07T07:28:30.224Z,16.80
2023-03-07T07:30:58.252Z,16.90
2023-03-07T07:33:27.685Z,16.80
2023-03-07T07:35:56.773Z,17.00
2023-03-07T07:38:25.129Z,17.00
2023-03-07T07:40:53.107Z,17.20
2023-03-07T07:43:21.134Z,16.70
2023-03-07T07:45:49.170Z,17.10
2023-03-07T07:48:17.380Z,17.10
2023-03-07T07:50:46.977Z,16.80
2023-03-07T07:53:16.909Z,17.10
2023-03-07T07:55:45.690Z,17.10
2023-03-07T07:58:13.623Z,16.70
2023-03-07T08:00:41.794Z,17.00
2023-03-07T08:03:09.780Z,17.10
2023-03-07T08:05:37.986Z,17.10
2023-03-07T08:08:07.619Z,16.80
2023-03-07T08:10:35.692Z,17.10
2023-03-07T08:13:04.050Z,16.90
2023-03-07T08:15:32.072Z,17.10
2023-03-07T08:18:00.101Z,17.00
2023-03-07T08:20:28.259Z,16.80
2023-03-07T08:22:56.234Z,16.90
2023-03-07T08:25:25.956Z,16.90
2023-03-07T08:27:55.561Z,17.10
2023-03-07T08:30:24.464Z,17.10
2023-03-07T08:32:53.650Z,17.10
2023-03-07T08:35:22.843Z,17.20
2023-03-07T08:37:54.872Z,17.10
2023-03-07T08:40:26.078Z,17.00
2023-03-07T08:42:55.061Z,16.90
2023-03-07T08:45:23.334Z,17.10
2023-03-07T08:47:54.143Z,17.10
2023-03-07T08:50:23.316Z,17.00
2023-03-07T08:52:51.459Z,17.20
2023-03-07T08:55:19.996Z,17.10
2023-03-07T08:57:49.434Z,17.00
2023-03-07T09:00:18.869Z,17.10
2023-03-07T09:02:47.196Z,17.10
2023-03-07T09:05:15.163Z,17.00
2023-03-07T09:07:43.354Z,17.10
2023-03-07T09:10:12.807Z,17.10
2023-03-07T09:12:40.762Z,17.20
2023-03-07T09:15:11.869Z,17.20
2023-03-07T09:17:39.868Z,16.90
2023-03-07T09:20:11.759Z,17.00
2023-03-07T09:22:39.767Z,17.20
2023-03-07T09:25:08.646Z,17.10
2023-03-07T09:27:36.742Z,17.10
2023-03-07T09:30:06.353Z,17.20
2023-03-07T09:35:05.512Z,17.00
2023-03-07T09:37:33.546Z,17.10
2023-03-07T09:40:01.529Z,17.10
2023-03-07T09:42:40.172Z,17.10
2023-03-07T09:45:22.623Z,17.20
2023-03-07T09:48:16.622Z,17.40
2023-03-07T09:50:53.813Z,17.10
2023-03-07T09:53:32.180Z,17.00
2023-03-07T09:56:03.170Z,17.10
2023-03-07T09:58:31.252Z,17.20
2023-03-07T10:01:01.509Z,17.10
2023-03-07T10:03:36.915Z,17.00
2023-03-07T10:06:13.439Z,17.10
2023-03-07T10:08:41.603Z,17.10
2023-03-07T10:11:25.787Z,17.10
2023-03-07T10:14:10.044Z,17.00
2023-03-07T10:16:47.990Z,17.20
2023-03-07T10:19:26.505Z,16.90
2023-03-07T10:22:05.046Z,17.00
2023-03-07T10:25:07.876Z,17.20
2023-03-07T10:27:36.074Z,16.90
2023-03-07T10:30:16.814Z,17.10
2023-03-07T10:32:47.447Z,16.90
2023-03-07T10:35:20.801Z,16.90
2023-03-07T10:37:52.932Z,17.30
2023-03-07T10:40:29.143Z,17.50
2023-03-07T10:42:58.911Z,17.20
2023-03-07T10:45:30.830Z,16.90
2023-03-07T10:48:01.019Z,17.10
2023-03-07T10:50:38.839Z,17.20
2023-03-07T10:53:23.275Z,17.00
2023-03-07T10:55:51.291Z,17.10
2023-03-07T10:58:25.714Z,17.30
2023-03-07T11:01:15.493Z,17.20
2023-03-07T11:03:54.767Z,17.20
2023-03-07T11:06:35.388Z,16.90
2023-03-07T11:09:18.015Z,17.20
2023-03-07T11:11:53.855Z,17.10
2023-03-07T11:14:22.984Z,17.20
2023-03-07T11:16:54.124Z,17.20
2023-03-07T11:19:42.532Z,17.10
2023-03-07T11:22:27.151Z,17.00
2023-03-07T11:25:05.310Z,16.90
2023-03-07T11:27:38.663Z,17.00
2023-03-07T11:30:20.073Z,17.20
2023-03-07T11:33:03.258Z,17.40
2023-03-07T11:35:50.750Z,17.10
2023-03-07T11:38:32.719Z,17.30
2023-03-07T11:41:08.970Z,17.30
2023-03-07T11:43:58.739Z,17.30
2023-03-07T11:46:41.723Z,17.20
2023-03-07T11:49:27.542Z,17.30
2023-03-07T11:52:09.443Z,17.20
2023-03-07T11:54:46.777Z,17.30
2023-03-07T11:57:33.226Z,17.10
2023-03-07T12:00:23.967Z,17.00
2023-03-07T12:03:50.916Z,17.30
2023-03-07T12:06:32.912Z,17.10
2023-03-07T12:09:14.344Z,17.30
2023-03-07T12:12:09.298Z,17.30
2023-03-07T12:14:48.477Z,17.20
2023-03-07T12:17:34.863Z,17.20
2023-03-07T12:20:27.099Z,17.10
2023-03-07T12:23:11.914Z,17.20
2023-03-07T12:25:43.454Z,17.10
2023-03-07T12:28:20.100Z,17.30
2023-03-07T12:31:00.454Z,17.40
2023-03-07T12:33:44.561Z,17.20
2023-03-07T12:36:23.504Z,17.00
2023-03-07T12:38:59.191Z,17.20
2023-03-07T12:41:47.052Z,17.20
2023-03-07T12:44:30.338Z,17.20
2023-03-07T12:47:08.228Z,17.20
2023-03-07T12:49:49.774Z,17.10
2023-03-07T12:52:34.580Z,17.10
2023-03-07T12:55:16.038Z,17.20
2023-03-07T12:57:50.893Z,17.10
2023-03-07T13:00:21.764Z,17.10
2023-03-07T13:03:00.864Z,17.20
2023-03-07T13:05:30.283Z,17.30
2023-03-07T13:07:58.655Z,17.20
2023-03-07T13:10:27.287Z,17.30
2023-03-07T13:12:55.622Z,16.80
2023-03-07T13:16:02.374Z,17.20
2023-03-07T13:18:33.311Z,17.10
2023-03-07T13:21:32.414Z,17.20
2023-03-07T13:24:35.590Z,17.00
2023-03-07T13:27:05.334Z,17.20
2023-03-07T13:30:19.810Z,17.50
2023-03-07T13:32:59.535Z,16.90
2023-03-07T13:35:57.608Z,17.20
2023-03-07T13:38:35.188Z,17.20
2023-03-07T13:41:04.717Z,16.90
2023-03-07T13:44:04.546Z,16.80
2023-03-07T13:46:51.690Z,17.10
2023-03-07T13:49:45.417Z,17.10
2023-03-07T13:52:45.555Z,17.20
2023-03-07T13:55:25.255Z,17.10
2023-03-07T13:57:55.950Z,17.10
2023-03-07T14:00:31.754Z,17.20
2023-03-07T14:02:59.826Z,17.10
2023-03-07T14:05:29.893Z,17.30
2023-03-07T14:08:00.592Z,17.20
2023-03-07T14:10:31.625Z,17.50
2023-03-07T14:13:24.152Z,17.20
2023-03-07T14:16:32.808Z,17.50
2023-03-07T14:19:12.726Z,17.20
2023-03-07T14:21:52.642Z,17.10
2023-03-07T14:25:01.166Z,17.20
2023-03-07T14:27:29.378Z,17.10
2023-03-07T14:29:57.782Z,16.80
2023-03-07T14:32:29.925Z,17.20
2023-03-07T14:34:59.654Z,17.20
2023-03-07T14:37:29.599Z,17.00
2023-03-07T14:40:23.478Z,17.40
2023-03-07T14:43:00.115Z,17.10
2023-03-07T14:45:38.290Z,17.20
2023-03-07T14:49:07.587Z,17.20
2023-03-07T14:51:40.391Z,17.20
2023-03-07T14:54:15.889Z,16.90
2023-03-07T14:56:45.635Z,17.20
2023-03-07T14:59:27.794Z,16.80
2023-03-07T15:01:57.772Z,17.10
2023-03-07T15:04:28.911Z,17.20
2023-03-07T15:06:58.914Z,17.20
2023-03-07T15:09:28.024Z,17.10
2023-03-07T15:12:03.150Z,17.10
2023-03-07T15:14:40.060Z,17.00
2023-03-07T15:17:15.701Z,17.00
2023-03-07T15:19:48.111Z,17.10
2023-03-07T15:22:21.000Z,16.90
2023-03-07T15:24:52.137Z,16.90
2023-03-07T15:27:25.898Z,17.10
2023-03-07T15:29:54.600Z,17.10
2023-03-07T15:32:36.434Z,17.10
2023-03-07T15:35:16.722Z,17.20
2023-03-07T15:37:55.420Z,16.90
2023-03-07T15:40:29.483Z,17.20
2023-03-07T15:43:02.199Z,17.00
2023-03-07T15:45:34.403Z,16.80
2023-03-07T15:48:10.796Z,17.20
2023-03-07T15:50:38.948Z,17.10
2023-03-07T15:53:10.753Z,17.10
2023-03-07T15:55:39.966Z,17.00
2023-03-07T15:58:15.480Z,16.80
2023-03-07T16:00:43.801Z,16.70
2023-03-07T16:03:25.675Z,16.80
2023-03-07T16:05:55.482Z,17.20
2023-03-07T16:08:24.032Z,17.00
2023-03-07T16:10:58.230Z,17.00
2023-03-07T16:13:31.765Z,17.00
2023-03-07T16:16:07.253Z,17.20
2023-03-07T16:18:35.753Z,17.00
2023-03-07T16:21:03.774Z,17.10
2023-03-07T16:23:32.282Z,17.00
2023-03-07T16:26:03.650Z,17.20
2023-03-07T16:28:33.468Z,16.70
2023-03-07T16:31:01.507Z,17.00
2023-03-07T16:33:29.450Z,17.00
2023-03-07T16:35:57.501Z,16.90
2023-03-07T16:38:25.749Z,17.10
2023-03-07T16:40:53.801Z,17.20
2023-03-07T16:43:38.246Z,16.90
2023-03-07T16:46:12.534Z,16.90
2023-03-07T16:48:40.555Z,17.00
2023-03-07T16:51:13.983Z,17.20
2023-03-07T16:53:41.904Z,16.70
2023-03-07T16:56:24.587Z,16.80
2023-03-07T16:58:54.332Z,17.10
2023-03-07T17:01:22.344Z,17.10
2023-03-07T17:03:50.343Z,17.10
2023-03-07T17:06:21.680Z,17.10
2023-03-07T17:08:52.944Z,17.10
2023-03-07T17:11:24.199Z,16.80
2023-03-07T17:13:57.974Z,17.00
2023-03-07T17:16:27.135Z,17.00
2023-03-07T17:18:55.248Z,16.80
2023-03-07T17:21:24.373Z,17.10
2023-03-07T17:23:52.388Z,17.00
2023-03-07T17:26:31.752Z,17.10
2023-03-07T17:29:05.412Z,16.60
2023-03-07T17:31:33.391Z,17.00
2023-03-07T17:34:01.442Z,16.90
2023-03-07T17:36:29.469Z,17.00
2023-03-07T17:38:57.442Z,17.10
2023-03-07T17:41:25.355Z,17.10
2023-03-07T17:43:53.696Z,16.90
2023-03-07T17:46:24.732Z,16.80
2023-03-07T17:48:54.466Z,16.90
2023-03-07T17:51:22.461Z,17.00
2023-03-07T17:53:50.417Z,16.80
2023-03-07T17:56:18.501Z,16.70
2023-03-07T17:58:46.490Z,17.10
2023-03-07T18:01:15.125Z,16.90
2023-03-07T18:03:45.327Z,16.60
2023-03-07T18:06:13.318Z,16.60
2023-03-07T18:08:41.341Z,17.00
2023-03-07T18:11:12.402Z,17.00
2023-03-07T18:13:40.827Z,16.80
2023-03-07T18:16:10.182Z,16.60
2023-03-07T18:18:50.573Z,17.00
2023-03-07T18:21:29.472Z,16.70
2023-03-07T18:23:57.855Z,17.00
2023-03-07T18:26:25.940Z,16.40
2023-03-07T18:28:54.254Z,16.50
2023-03-07T18:31:27.946Z,16.70
2023-03-07T18:33:56.100Z,17.00
2023-03-07T18:36:27.540Z,16.90
2023-03-07T18:38:55.643Z,16.70
2023-03-07T18:41:25.833Z,17.00
2023-03-07T18:43:54.886Z,16.50
2023-03-07T18:46:25.217Z,16.80
2023-03-07T18:48:53.337Z,16.90
2023-03-07T18:51:24.908Z,16.80
2023-03-07T18:53:55.694Z,17.00
2023-03-07T18:56:23.737Z,17.00
2023-03-07T18:58:55.647Z,16.60
2023-03-07T19:01:26.132Z,16.80
2023-03-07T19:03:56.973Z,17.00
2023-03-07T19:06:28.580Z,17.00
2023-03-07T19:08:58.068Z,17.00
2023-03-07T19:11:26.630Z,16.80
2023-03-07T19:13:54.579Z,16.90
2023-03-07T19:16:26.401Z,17.00
2023-03-07T19:18:55.858Z,17.00
2023-03-07T19:21:25.690Z,16.70
2023-03-07T19:23:57.023Z,16.40
2023-03-07T19:26:25.943Z,17.00
2023-03-07T19:28:55.616Z,16.60
2023-03-07T19:31:26.777Z,16.90
2023-03-07T19:33:55.433Z,16.90
2023-03-07T19:36:27.345Z,16.80
2023-03-07T19:38:59.028Z,16.70
2023-03-07T19:41:29.870Z,16.90
2023-03-07T19:43:59.468Z,16.70
2023-03-07T19:46:28.264Z,16.80
2023-03-07T19:48:56.550Z,16.60
2023-03-07T19:51:26.843Z,17.00
2023-03-07T19:53:57.712Z,16.90
2023-03-07T19:56:31.684Z,16.60
2023-03-07T19:59:02.156Z,17.00
2023-03-07T20:01:31.060Z,16.40
2023-03-07T20:03:59.489Z,16.90
2023-03-07T20:06:30.855Z,16.50
2023-03-07T20:09:01.613Z,17.00
2023-03-07T20:11:31.682Z,16.50
2023-03-07T20:14:02.233Z,16.60
2023-03-07T20:16:30.297Z,16.50
2023-03-07T20:19:00.419Z,16.60
2023-03-07T20:21:29.880Z,17.00
2023-03-07T20:24:00.149Z,16.80
2023-03-07T20:26:32.001Z,16.90
2023-03-07T20:29:01.368Z,16.80
2023-03-07T20:31:30.733Z,16.90
2023-03-07T20:34:00.470Z,16.90
2023-03-07T20:36:30.485Z,17.00
2023-03-07T20:39:02.454Z,17.00
2023-03-07T20:41:33.302Z,17.10
2023-03-07T20:44:04.353Z,17.00
2023-03-07T20:46:33.530Z,16.60
2023-03-07T20:49:03.391Z,16.50
2023-03-07T20:51:34.190Z,16.80
2023-03-07T20:54:06.105Z,16.60
2023-03-07T20:56:37.250Z,16.90
2023-03-07T20:59:05.934Z,16.90
2023-03-07T21:01:35.698Z,16.40
2023-03-07T21:04:07.963Z,16.70
2023-03-07T21:06:38.160Z,16.30
2023-03-07T21:09:09.984Z,16.50
2023-03-07T21:11:40.111Z,16.70
2023-03-07T21:14:08.253Z,16.60
2023-03-07T21:16:36.320Z,17.00
2023-03-07T21:19:07.186Z,16.80
2023-03-07T21:21:38.469Z,16.90
2023-03-07T21:24:08.887Z,16.30
2023-03-07T21:26:37.632Z,16.90
2023-03-07T21:29:08.797Z,16.60
2023-03-07T21:31:37.438Z,16.40
2023-03-07T21:34:08.253Z,16.90
2023-03-07T21:36:36.518Z,16.50
2023-03-07T21:39:09.710Z,16.40
2023-03-07T21:41:38.283Z,17.00
2023-03-07T21:44:07.203Z,16.30
2023-03-07T21:46:35.442Z,16.50
2023-03-07T21:49:03.409Z,16.40
2023-03-07T21:51:31.395Z,16.60
2023-03-07T21:53:59.387Z,16.30
2023-03-07T21:56:28.791Z,16.40
2023-03-07T21:58:56.873Z,16.60
2023-03-07T22:01:27.385Z,16.50
2023-03-07T22:03:57.127Z,16.90
2023-03-07T22:06:26.060Z,16.70
2023-03-07T22:08:54.125Z,16.60
2023-03-07T22:11:23.963Z,16.70
2023-03-07T22:13:53.233Z,16.50
2023-03-07T22:16:21.811Z,16.60
2023-03-07T22:18:54.604Z,16.80
2023-03-07T22:21:24.869Z,16.60
2023-03-07T22:23:57.381Z,16.60
2023-03-07T22:26:25.469Z,16.50
2023-03-07T22:28:55.212Z,16.60
2023-03-07T22:31:23.307Z,16.90
2023-03-07T22:33:51.563Z,16.80
2023-03-07T22:36:19.548Z,16.60
2023-03-07T22:38:47.550Z,16.30
2023-03-07T22:41:17.881Z,16.90
2023-03-07T22:43:46.076Z,16.90
2023-03-07T22:46:15.650Z,16.40
2023-03-07T22:48:43.726Z,16.50
2023-03-07T22:51:18.833Z,16.50
2023-03-07T22:53:47.221Z,16.50
2023-03-07T22:56:17.994Z,16.60
2023-03-07T22:58:46.445Z,16.30
2023-03-07T23:01:20.101Z,16.40
2023-03-07T23:03:49.755Z,16.50
2023-03-07T23:06:18.240Z,16.50
2023-03-07T23:08:47.037Z,16.50
2023-03-07T23:11:16.015Z,16.40
2023-03-07T23:13:44.254Z,16.50
2023-03-07T23:16:16.497Z,16.80
2023-03-07T23:18:46.704Z,16.50
2023-03-07T23:21:18.025Z,16.70
2023-03-07T23:23:46.110Z,16.30
2023-03-07T23:26:22.413Z,16.40
2023-03-07T23:28:50.444Z,16.30
2023-03-07T23:31:22.443Z,16.20
2023-03-07T23:33:51.321Z,16.50
2023-03-07T23:36:19.309Z,16.30
2023-03-07T23:38:47.375Z,16.30
2023-03-07T23:41:15.600Z,16.30
2023-03-07T23:43:44.621Z,16.30
2023-03-07T23:46:12.632Z,16.30
2023-03-07T23:48:41.947Z,16.50
2023-03-07T23:51:09.994Z,16.50
2023-03-07T23:53:38.856Z,16.60
2023-03-07T23:56:08.193Z,16.30
2023-03-07T23:58:36.911Z,16.40
